Time;durP1;ratioP1;P1;durP2;ratioP2;P2;SDS_P1;SDS_P2;PMS_P1;PMS_P2;Temp;Humidity;BMP_temperature;BMP_pressure;BME280_temperature;BME280_humidity;BME280_pressure;Samples;Min_cycle;Max_cycle;Signal;HPM_P1;HPM_P2
2023/12/12 00:00:10;;;;;;;2.90;2.70;;;7.70;99.90;;;;;;5032362;28;20726;-68
2023/12/12 00:02:37;;;;;;;2.77;2.57;;;7.80;99.90;;;;;;5025682;28;20212;-67
2023/12/12 00:05:05;;;;;;;2.73;2.63;;;7.80;99.90;;;;;;5044804;28;20207;-67
2023/12/12 00:07:32;;;;;;;2.83;2.57;;;7.80;99.90;;;;;;5031810;28;20280;-68
2023/12/12 00:09:59;;;;;;;2.77;2.57;;;7.80;99.90;;;;;;5028820;28;20292;-67
2023/12/12 00:12:25;;;;;;;2.93;2.73;;;7.80;99.90;;;;;;5046775;28;20200;-67
2023/12/12 00:14:52;;;;;;;2.70;2.50;;;7.80;99.90;;;;;;5047494;28;20235;-67
2023/12/12 00:17:20;;;;;;;3.20;3.00;;;7.80;99.90;;;;;;5066712;28;20290;-67
2023/12/12 00:19:47;;;;;;;3.00;2.80;;;7.70;99.90;;;;;;5066329;28;20302;-67
2023/12/12 00:22:14;;;;;;;3.30;3.10;;;7.80;99.90;;;;;;5066869;28;20235;-68
2023/12/12 00:24:41;;;;;;;2.87;2.67;;;7.70;99.90;;;;;;5061634;28;20283;-67
2023/12/12 00:27:08;;;;;;;2.97;2.67;;;7.80;99.90;;;;;;5045848;28;20234;-67
2023/12/12 00:29:36;;;;;;;3.13;2.93;;;7.70;99.90;;;;;;5046390;28;20310;-67
2023/12/12 00:32:03;;;;;;;3.47;3.27;;;7.70;99.90;;;;;;5038937;28;20315;-67
2023/12/12 00:34:31;;;;;;;3.20;2.80;;;7.70;99.90;;;;;;5037098;28;20464;-68
2023/12/12 00:36:58;;;;;;;2.77;2.60;;;7.70;99.90;;;;;;5046450;28;20269;-67
2023/12/12 00:39:25;;;;;;;3.37;2.97;;;7.70;99.90;;;;;;5046347;28;20323;-68
2023/12/12 00:41:52;;;;;;;3.27;2.97;;;7.70;99.90;;;;;;5045540;28;20777;-68
2023/12/12 00:44:19;;;;;;;2.70;2.50;;;7.70;99.90;;;;;;5046278;28;20212;-67
2023/12/12 00:46:46;;;;;;;3.13;2.83;;;7.70;99.90;;;;;;5045811;28;20224;-67
2023/12/12 00:49:12;;;;;;;3.00;2.80;;;7.70;99.90;;;;;;5045461;28;20294;-67
2023/12/12 00:51:41;;;;;;;3.23;3.03;;;7.70;99.90;;;;;;5045904;28;20235;-67
2023/12/12 00:54:08;;;;;;;3.27;3.03;;;7.70;99.90;;;;;;5045291;28;20214;-68
2023/12/12 00:56:34;;;;;;;3.47;3.27;;;7.70;99.90;;;;;;5033974;28;20207;-67
2023/12/12 00:59:01;;;;;;;3.30;3.10;;;7.60;99.90;;;;;;5045362;28;20235;-67
2023/12/12 01:01:28;;;;;;;3.10;2.90;;;7.60;99.90;;;;;;5045644;28;20299;-67
2023/12/12 01:03:55;;;;;;;2.60;2.50;;;7.70;99.90;;;;;;5045795;28;20211;-67
2023/12/12 01:06:23;;;;;;;3.27;3.00;;;7.70;99.90;;;;;;5045041;28;20319;-67
2023/12/12 01:08:52;;;;;;;3.10;2.90;;;7.70;99.90;;;;;;5045632;28;20216;-67
2023/12/12 01:11:19;;;;;;;3.30;3.10;;;7.70;99.90;;;;;;5047733;28;20727;-67
2023/12/12 01:13:46;;;;;;;3.60;3.33;;;7.70;99.90;;;;;;5048025;28;20208;-67
2023/12/12 01:16:13;;;;;;;3.53;3.23;;;7.70;99.90;;;;;;5044952;28;20307;-67
2023/12/12 01:18:40;;;;;;;3.30;3.10;;;7.70;99.90;;;;;;5046403;28;20208;-68
2023/12/12 01:21:07;;;;;;;3.90;3.57;;;7.70;99.90;;;;;;5045676;28;20294;-68
2023/12/12 01:23:48;;;;;;;4.33;3.80;;;7.70;99.90;;;;;;5027458;28;20305;-67
2023/12/12 01:26:17;;;;;;;3.37;3.17;;;7.70;99.90;;;;;;5026566;28;20189;-67
2023/12/12 01:28:44;;;;;;;3.83;3.53;;;7.70;99.90;;;;;;5046803;28;20270;-67
2023/12/12 01:31:10;;;;;;;3.33;3.13;;;7.70;99.90;;;;;;5047187;28;20291;-67
2023/12/12 01:33:37;;;;;;;4.03;3.50;;;7.70;99.90;;;;;;5047158;28;20261;-68
2023/12/12 01:36:05;;;;;;;3.33;3.13;;;7.70;99.90;;;;;;5047328;28;20642;-68
2023/12/12 01:38:32;;;;;;;3.70;3.40;;;7.60;99.90;;;;;;5047422;28;20295;-68
2023/12/12 01:41:00;;;;;;;3.53;3.17;;;7.70;99.90;;;;;;5046040;28;20311;-68
2023/12/12 01:43:31;;;;;;;3.70;3.50;;;7.70;99.90;;;;;;5027438;28;20236;-67
2023/12/12 01:46:00;;;;;;;3.33;3.10;;;7.70;99.90;;;;;;5037297;28;20254;-68
2023/12/12 01:48:29;;;;;;;3.80;3.50;;;7.70;99.90;;;;;;5046675;28;20784;-67
2023/12/12 01:50:57;;;;;;;3.77;3.47;;;7.70;99.90;;;;;;5046787;28;20846;-67
2023/12/12 01:53:28;;;;;;;3.67;3.37;;;7.70;99.90;;;;;;5047224;28;20582;-67
2023/12/12 01:55:56;;;;;;;3.77;3.47;;;7.70;99.90;;;;;;5031680;28;20563;-68
2023/12/12 01:58:25;;;;;;;3.47;3.17;;;7.70;99.90;;;;;;5046471;28;20220;-67
2023/12/12 02:00:53;;;;;;;3.10;2.90;;;7.70;99.90;;;;;;5046298;28;20629;-67
2023/12/12 02:03:21;;;;;;;3.43;3.07;;;7.70;99.90;;;;;;5026695;28;20304;-68
2023/12/12 02:05:49;;;;;;;4.00;3.70;;;7.70;99.90;;;;;;5026820;28;20224;-68
2023/12/12 02:08:17;;;;;;;3.20;3.00;;;7.70;99.90;;;;;;5034205;28;20339;-67
2023/12/12 02:10:45;;;;;;;3.70;3.50;;;7.70;99.90;;;;;;5046653;28;20212;-67
2023/12/12 02:13:12;;;;;;;3.90;3.70;;;7.70;99.90;;;;;;5046799;28;20252;-67
2023/12/12 02:15:39;;;;;;;3.97;3.67;;;7.70;99.90;;;;;;5046732;28;20766;-67
2023/12/12 02:18:08;;;;;;;4.03;3.73;;;7.70;99.90;;;;;;5029958;28;20392;-67
2023/12/12 02:20:35;;;;;;;3.80;3.60;;;7.70;99.90;;;;;;5026801;28;20570;-67
2023/12/12 02:23:04;;;;;;;4.23;3.83;;;7.70;99.90;;;;;;5042619;28;20643;-67
2023/12/12 02:25:31;;;;;;;4.40;4.10;;;7.70;99.90;;;;;;5049973;28;20208;-67
2023/12/12 02:28:00;;;;;;;4.30;3.90;;;7.70;99.90;;;;;;5049663;28;20322;-67
2023/12/12 02:30:27;;;;;;;4.10;3.80;;;7.70;99.90;;;;;;5050964;28;20270;-67
2023/12/12 02:32:54;;;;;;;3.97;3.67;;;7.70;99.90;;;;;;5050539;28;20204;-68
2023/12/12 02:35:21;;;;;;;4.47;4.17;;;7.70;99.90;;;;;;5050458;28;20567;-67
2023/12/12 02:37:47;;;;;;;3.90;3.60;;;7.70;99.90;;;;;;5050602;28;20299;-67
2023/12/12 02:40:16;;;;;;;4.43;3.80;;;7.70;99.90;;;;;;5050466;28;20204;-67
2023/12/12 02:42:46;;;;;;;4.07;3.83;;;7.70;99.90;;;;;;5048897;28;20304;-67
2023/12/12 02:45:13;;;;;;;4.57;4.23;;;7.70;99.90;;;;;;5049684;28;20207;-67
2023/12/12 02:47:40;;;;;;;4.60;4.20;;;7.70;99.90;;;;;;5050150;28;20223;-67
2023/12/12 02:50:07;;;;;;;6.30;4.97;;;7.70;99.90;;;;;;5049455;28;20210;-67
2023/12/12 02:52:34;;;;;;;4.20;3.90;;;7.70;99.90;;;;;;5050289;28;20218;-67
2023/12/12 02:55:01;;;;;;;4.97;4.17;;;7.70;99.90;;;;;;5049810;28;20982;-67
2023/12/12 02:57:29;;;;;;;4.40;4.10;;;7.70;99.90;;;;;;5049693;28;20472;-67
2023/12/12 02:59:56;;;;;;;4.73;4.33;;;7.60;99.90;;;;;;5049297;28;20322;-67
2023/12/12 03:02:23;;;;;;;4.47;4.13;;;7.60;99.90;;;;;;5041459;28;20745;-68
2023/12/12 03:04:50;;;;;;;3.43;3.23;;;7.70;99.90;;;;;;5040449;28;20838;-67
2023/12/12 03:07:17;;;;;;;2.90;2.60;;;7.60;99.90;;;;;;5049494;28;20649;-67
2023/12/12 03:09:44;;;;;;;2.63;2.13;;;7.60;99.90;;;;;;5047624;28;20270;-68
2023/12/12 03:12:11;;;;;;;1.80;1.70;;;7.60;99.90;;;;;;5029120;28;20244;-67
2023/12/12 03:14:39;;;;;;;1.80;1.70;;;7.60;99.90;;;;;;5029860;28;20208;-67
2023/12/12 03:17:06;;;;;;;1.80;1.70;;;7.50;99.90;;;;;;5028763;28;20209;-67
2023/12/12 03:19:33;;;;;;;2.43;1.33;;;7.60;99.90;;;;;;5042858;28;20211;-67
2023/12/12 03:22:00;;;;;;;1.43;0.90;;;7.60;99.90;;;;;;5049319;28;20235;-67
2023/12/12 03:24:27;;;;;;;1.80;1.40;;;7.60;99.90;;;;;;5048421;28;20640;-67
2023/12/12 03:26:54;;;;;;;1.40;1.10;;;7.50;99.90;;;;;;5048879;28;20706;-67
2023/12/12 03:29:21;;;;;;;2.10;1.27;;;7.50;99.90;;;;;;5049366;28;20324;-67
2023/12/12 03:31:49;;;;;;;2.40;1.50;;;7.50;99.90;;;;;;5049613;28;20291;-67
2023/12/12 03:34:16;;;;;;;1.63;1.53;;;7.50;99.90;;;;;;5048584;28;20290;-68
2023/12/12 03:36:43;;;;;;;2.03;1.43;;;7.50;99.90;;;;;;5038397;28;20709;-68
2023/12/12 03:39:10;;;;;;;2.00;1.40;;;7.50;99.90;;;;;;5038880;28;20215;-68
2023/12/12 03:41:37;;;;;;;2.30;1.80;;;7.40;99.90;;;;;;5044643;28;20208;-68
2023/12/12 03:44:04;;;;;;;2.23;2.00;;;7.40;99.90;;;;;;5048751;28;20243;-67
2023/12/12 03:46:31;;;;;;;2.43;1.80;;;7.40;99.90;;;;;;5034794;28;20308;-68
2023/12/12 03:48:59;;;;;;;3.57;2.10;;;7.40;99.90;;;;;;5028606;28;20854;-68
2023/12/12 03:51:26;;;;;;;1.93;1.83;;;7.40;99.90;;;;;;5028987;28;20220;-68
2023/12/12 03:53:53;;;;;;;3.47;2.17;;;7.40;99.90;;;;;;5041736;28;20220;-68
2023/12/12 03:56:20;;;;;;;2.33;2.03;;;7.40;99.90;;;;;;5048954;28;20243;-68
2023/12/12 03:58:47;;;;;;;7.53;2.27;;;7.40;99.90;;;;;;5042533;28;20228;-68
2023/12/12 04:01:14;;;;;;;2.20;2.00;;;7.40;99.90;;;;;;5040730;28;20211;-68
2023/12/12 04:03:41;;;;;;;3.53;2.50;;;7.30;99.90;;;;;;5049058;28;20210;-68
2023/12/12 04:06:10;;;;;;;2.67;2.30;;;7.30;99.90;;;;;;5048347;28;20773;-68
2023/12/12 04:08:37;;;;;;;6.03;2.50;;;7.20;99.90;;;;;;5049041;28;20303;-68
2023/12/12 04:11:04;;;;;;;4.73;2.77;;;7.30;99.90;;;;;;5037689;28;20209;-68
2023/12/12 04:13:31;;;;;;;4.83;2.83;;;7.30;99.90;;;;;;5036027;28;20628;-68
2023/12/12 04:15:58;;;;;;;3.70;2.70;;;7.30;99.90;;;;;;5048704;28;20242;-68
2023/12/12 04:18:25;;;;;;;4.53;2.67;;;7.20;99.90;;;;;;5048650;28;20212;-67
2023/12/12 04:20:52;;;;;;;7.10;3.07;;;7.20;99.90;;;;;;5048560;28;20230;-68
2023/12/12 04:23:20;;;;;;;4.17;3.10;;;7.30;99.90;;;;;;5028868;28;20236;-68
2023/12/12 04:25:47;;;;;;;4.53;3.00;;;7.30;99.90;;;;;;5028417;28;20631;-67
2023/12/12 04:28:14;;;;;;;5.17;2.90;;;7.20;99.90;;;;;;5028288;28;20321;-68
2023/12/12 04:30:41;;;;;;;4.47;2.70;;;7.20;99.90;;;;;;5028649;28;20287;-67
2023/12/12 04:33:08;;;;;;;6.70;3.20;;;7.30;99.90;;;;;;5028327;28;20201;-68
2023/12/12 04:35:35;;;;;;;7.17;3.80;;;7.20;99.90;;;;;;5045367;28;20632;-67
2023/12/12 04:38:02;;;;;;;3.23;2.93;;;7.20;99.90;;;;;;5048040;28;20208;-68
2023/12/12 04:40:31;;;;;;;6.63;3.20;;;7.20;99.90;;;;;;5047756;28;20299;-68
2023/12/12 04:42:58;;;;;;;4.40;3.10;;;7.20;99.90;;;;;;5047310;28;20295;-67
2023/12/12 04:45:25;;;;;;;5.13;3.00;;;7.20;99.90;;;;;;5048042;28;20238;-68
2023/12/12 04:47:51;;;;;;;5.37;2.83;;;7.20;99.90;;;;;;5046822;28;20323;-67
2023/12/12 04:50:18;;;;;;;3.27;2.70;;;7.20;99.90;;;;;;5047215;28;20647;-67
2023/12/12 04:52:45;;;;;;;4.77;2.70;;;7.20;99.90;;;;;;5042694;28;20203;-68
2023/12/12 04:55:12;;;;;;;6.37;2.43;;;7.20;99.90;;;;;;5027840;28;20218;-68
2023/12/12 04:57:43;;;;;;;5.80;2.40;;;7.20;99.90;;;;;;5054581;28;20231;-67
2023/12/12 05:00:13;;;;;;;4.87;2.30;;;7.20;99.90;;;;;;5067672;28;20202;-68
2023/12/12 05:02:41;;;;;;;2.77;2.20;;;7.20;99.90;;;;;;5067730;28;20191;-68
2023/12/12 05:05:08;;;;;;;3.47;2.13;;;7.20;99.90;;;;;;5066957;28;20206;-68
2023/12/12 05:07:35;;;;;;;2.13;1.93;;;7.20;99.90;;;;;;5062348;28;20279;-68
2023/12/12 05:10:02;;;;;;;2.87;2.30;;;7.10;99.90;;;;;;5047187;28;20238;-68
2023/12/12 05:12:29;;;;;;;3.40;2.10;;;7.10;99.90;;;;;;5047233;28;20371;-66
2023/12/12 05:14:58;;;;;;;6.30;2.43;;;7.10;99.90;;;;;;5047066;28;20204;-67
2023/12/12 05:17:25;;;;;;;2.37;2.10;;;7.20;99.90;;;;;;5046489;28;20745;-67
2023/12/12 05:19:52;;;;;;;4.23;2.17;;;7.20;99.90;;;;;;5046644;28;20746;-67
2023/12/12 05:22:19;;;;;;;5.47;2.20;;;7.20;99.90;;;;;;5033634;28;20904;-67
2023/12/12 05:24:45;;;;;;;2.13;1.93;;;7.10;99.90;;;;;;5045696;28;20290;-69
2023/12/12 05:27:12;;;;;;;4.63;2.70;;;7.10;99.90;;;;;;5047070;28;20307;-67
2023/12/12 05:29:39;;;;;;;5.03;2.80;;;7.10;99.90;;;;;;5045832;28;20231;-67
2023/12/12 05:32:08;;;;;;;4.00;3.27;;;7.10;99.90;;;;;;5027622;28;20244;-67
2023/12/12 05:34:35;;;;;;;4.33;2.93;;;7.10;99.90;;;;;;5044787;28;20300;-67
2023/12/12 05:37:03;;;;;;;5.57;3.30;;;7.20;99.90;;;;;;5046558;28;20286;-67
2023/12/12 05:39:30;;;;;;;3.40;2.70;;;7.10;99.90;;;;;;5046661;28;20204;-67
2023/12/12 05:41:57;;;;;;;5.10;3.40;;;7.10;99.90;;;;;;5046554;28;20299;-67
2023/12/12 05:44:24;;;;;;;5.97;3.03;;;7.10;99.90;;;;;;5047218;28;20291;-67
2023/12/12 05:46:51;;;;;;;6.60;2.90;;;7.10;99.90;;;;;;5043921;28;20210;-67
2023/12/12 05:49:21;;;;;;;5.03;2.73;;;7.10;99.90;;;;;;5046701;28;20267;-67
2023/12/12 05:51:48;;;;;;;5.67;2.73;;;7.10;99.90;;;;;;5046787;28;20208;-67
2023/12/12 05:54:17;;;;;;;4.87;2.73;;;7.10;99.90;;;;;;5062671;28;20297;-68
2023/12/12 05:56:45;;;;;;;4.80;2.60;;;7.10;99.90;;;;;;5051259;28;20759;-68
2023/12/12 05:59:14;;;;;;;2.90;2.67;;;7.10;99.90;;;;;;5046487;28;20228;-67
2023/12/12 06:01:41;;;;;;;2.80;2.50;;;7.10;99.90;;;;;;5046967;28;20289;-67
2023/12/12 06:04:11;;;;;;;3.17;2.60;;;7.10;99.90;;;;;;5046212;28;20736;-67
2023/12/12 06:06:43;;;;;;;5.33;2.83;;;7.00;99.90;;;;;;5044554;28;20702;-67
2023/12/12 06:09:10;;;;;;;2.90;2.60;;;7.00;99.90;;;;;;5046358;28;20216;-67
2023/12/12 06:11:38;;;;;;;6.80;3.10;;;7.00;99.90;;;;;;5046486;28;20211;-67
2023/12/12 06:14:05;;;;;;;5.67;3.00;;;7.00;99.90;;;;;;5046473;28;20741;-67
2023/12/12 06:16:32;;;;;;;6.17;3.43;;;7.00;99.90;;;;;;5046907;28;20568;-67
2023/12/12 06:18:59;;;;;;;5.53;3.50;;;7.00;99.90;;;;;;5046590;28;20302;-67
2023/12/12 06:21:26;;;;;;;4.73;3.20;;;6.90;99.90;;;;;;5046705;28;20298;-67
2023/12/12 06:23:54;;;;;;;3.73;3.43;;;6.90;99.90;;;;;;5044875;28;20232;-68
2023/12/12 06:26:21;;;;;;;7.13;3.63;;;6.90;99.90;;;;;;5027734;28;20287;-67
2023/12/12 06:28:48;;;;;;;4.00;3.33;;;6.90;99.90;;;;;;5026664;28;20335;-67
2023/12/12 06:31:15;;;;;;;5.07;3.60;;;6.80;99.90;;;;;;5026459;28;20209;-69
2023/12/12 06:33:41;;;;;;;7.63;3.80;;;6.90;99.90;;;;;;5026338;28;20738;-67
2023/12/12 06:36:09;;;;;;;9.50;4.30;;;6.90;99.90;;;;;;5025989;28;20739;-68
2023/12/12 06:38:36;;;;;;;6.53;4.07;;;7.00;99.90;;;;;;5042477;28;20208;-69
2023/12/12 06:41:05;;;;;;;7.73;4.27;;;7.00;99.90;;;;;;5046108;28;20330;-69
2023/12/12 06:43:32;;;;;;;5.37;3.90;;;7.00;99.90;;;;;;5026304;28;20739;-68
2023/12/12 06:45:59;;;;;;;4.87;3.97;;;7.00;99.90;;;;;;5026470;28;20235;-68
2023/12/12 06:48:26;;;;;;;7.53;4.30;;;7.00;99.90;;;;;;5027306;28;20299;-69
2023/12/12 06:50:53;;;;;;;5.03;3.80;;;7.00;99.90;;;;;;5064821;28;20209;-69
2023/12/12 06:53:20;;;;;;;5.10;3.73;;;7.00;99.90;;;;;;5063728;28;20231;-68
2023/12/12 06:55:47;;;;;;;7.73;4.30;;;7.00;99.90;;;;;;5035983;28;20296;-69
2023/12/12 06:58:17;;;;;;;4.50;4.10;;;7.10;99.90;;;;;;5033934;28;20228;-68
2023/12/12 07:00:44;;;;;;;7.03;4.17;;;7.00;99.90;;;;;;5034098;28;20201;-69
2023/12/12 07:03:11;;;;;;;5.87;3.97;;;7.00;99.90;;;;;;5035116;28;20635;-68
2023/12/12 07:05:38;;;;;;;8.33;4.43;;;7.00;99.90;;;;;;5040978;28;20284;-67
2023/12/12 07:08:05;;;;;;;7.73;4.47;;;6.90;99.90;;;;;;5028021;28;20237;-67
2023/12/12 07:10:33;;;;;;;5.57;4.23;;;7.00;99.90;;;;;;5046986;28;20239;-67
2023/12/12 07:13:00;;;;;;;8.43;4.43;;;7.00;99.90;;;;;;5035658;28;20200;-67
2023/12/12 07:15:31;;;;;;;9.33;4.57;;;7.00;99.90;;;;;;5030061;28;20208;-67
2023/12/12 07:17:57;;;;;;;10.40;5.20;;;7.00;99.90;;;;;;5029872;28;20885;-67
2023/12/12 07:20:24;;;;;;;7.37;5.33;;;6.90;99.90;;;;;;5029795;28;20315;-67
2023/12/12 07:22:51;;;;;;;7.60;4.93;;;7.00;99.90;;;;;;5034043;28;20325;-66
2023/12/12 07:25:20;;;;;;;5.80;5.20;;;6.90;99.90;;;;;;5049951;28;20258;-67
2023/12/12 07:27:47;;;;;;;8.43;4.73;;;6.90;99.90;;;;;;5049567;28;20210;-68
2023/12/12 07:30:14;;;;;;;12.47;5.63;;;6.80;99.90;;;;;;5045442;28;20702;-68
2023/12/12 07:32:44;;;;;;;7.03;4.60;;;6.90;99.90;;;;;;5029774;28;20201;-67
2023/12/12 07:35:11;;;;;;;5.43;4.93;;;6.90;99.90;;;;;;5029007;28;20256;-67
2023/12/12 07:37:37;;;;;;;8.43;4.63;;;6.80;99.90;;;;;;5029530;28;20295;-67
2023/12/12 07:40:05;;;;;;;9.80;5.00;;;6.90;99.90;;;;;;5030683;28;20287;-67
2023/12/12 07:42:32;;;;;;;8.37;4.47;;;6.90;99.90;;;;;;5029253;28;20251;-67
2023/12/12 07:44:59;;;;;;;9.10;4.83;;;6.90;99.90;;;;;;5028996;28;20762;-69
2023/12/12 07:47:26;;;;;;;8.87;4.87;;;6.90;99.90;;;;;;5029127;28;20286;-67
2023/12/12 07:49:56;;;;;;;8.73;5.10;;;6.90;99.90;;;;;;5044982;28;20223;-67
2023/12/12 07:52:23;;;;;;;10.83;4.83;;;6.90;99.90;;;;;;5049242;28;20239;-67
2023/12/12 07:54:49;;;;;;;11.50;5.13;;;6.90;99.90;;;;;;5049047;28;20199;-67
2023/12/12 07:57:16;;;;;;;10.13;5.03;;;6.90;99.90;;;;;;5048886;28;20235;-67
2023/12/12 07:59:44;;;;;;;6.23;4.27;;;6.90;99.90;;;;;;5048580;28;20387;-67
2023/12/12 08:02:11;;;;;;;5.17;4.60;;;6.90;99.90;;;;;;5048790;28;20558;-67
2023/12/12 08:04:38;;;;;;;8.13;4.53;;;6.90;99.90;;;;;;5048099;28;20207;-66
2023/12/12 08:07:07;;;;;;;7.77;4.17;;;6.90;99.90;;;;;;5031313;28;20280;-67
2023/12/12 08:09:33;;;;;;;6.20;4.50;;;7.00;99.90;;;;;;5042878;28;20298;-67
2023/12/12 08:12:00;;;;;;;9.97;4.80;;;6.90;99.90;;;;;;5048470;28;20294;-67
2023/12/12 08:14:27;;;;;;;6.43;3.97;;;7.00;99.90;;;;;;5048703;28;20240;-67
2023/12/12 08:16:54;;;;;;;10.77;4.40;;;6.90;99.90;;;;;;5048396;28;20667;-67
2023/12/12 08:19:21;;;;;;;7.13;4.43;;;6.90;99.90;;;;;;5048064;28;20630;-67
2023/12/12 08:21:48;;;;;;;9.80;4.60;;;6.90;99.90;;;;;;5034774;28;20248;-67
2023/12/12 08:24:16;;;;;;;7.27;4.37;;;6.90;99.90;;;;;;5028525;28;20205;-67
2023/12/12 08:26:46;;;;;;;15.33;4.40;;;6.90;99.90;;;;;;5028615;28;20335;-67
2023/12/12 08:29:15;;;;;;;5.90;4.13;;;6.90;99.90;;;;;;5028400;28;20232;-68
2023/12/12 08:31:42;;;;;;;6.20;4.10;;;6.90;99.90;;;;;;5031267;28;20197;-68
2023/12/12 08:34:09;;;;;;;7.77;4.20;;;6.90;99.90;;;;;;5047816;28;20288;-68
2023/12/12 08:36:36;;;;;;;5.47;3.80;;;6.90;99.90;;;;;;5047425;28;20721;-68
2023/12/12 08:39:03;;;;;;;5.70;3.60;;;6.90;99.90;;;;;;5044786;28;20312;-68
2023/12/12 08:41:32;;;;;;;9.07;3.97;;;6.90;99.90;;;;;;5036502;28;20210;-68
2023/12/12 08:43:59;;;;;;;7.27;3.83;;;7.00;99.90;;;;;;5059964;28;20208;-68
2023/12/12 08:46:26;;;;;;;9.10;3.63;;;7.00;99.90;;;;;;5035248;28;20206;-67
2023/12/12 08:48:55;;;;;;;6.73;3.63;;;6.90;99.90;;;;;;5028044;28;20247;-67
2023/12/12 08:51:22;;;;;;;8.80;3.90;;;6.90;99.90;;;;;;5027998;28;20545;-67
2023/12/12 08:53:49;;;;;;;3.97;3.50;;;6.90;99.90;;;;;;5027876;28;20319;-67
2023/12/12 08:56:17;;;;;;;4.93;3.27;;;6.90;99.90;;;;;;5027462;28;20209;-67
2023/12/12 08:58:47;;;;;;;5.77;3.53;;;6.90;99.90;;;;;;5028534;28;20323;-67
2023/12/12 09:01:16;;;;;;;5.33;3.27;;;6.90;99.90;;;;;;5047793;28;20214;-67
2023/12/12 09:03:43;;;;;;;7.73;3.83;;;7.00;99.90;;;;;;5047690;28;20212;-66
2023/12/12 09:06:10;;;;;;;12.07;4.10;;;7.00;99.90;;;;;;5046641;28;20232;-66
2023/12/12 09:08:37;;;;;;;8.43;3.77;;;7.00;99.90;;;;;;5047326;28;20287;-66
2023/12/12 09:11:04;;;;;;;7.20;3.47;;;6.90;99.90;;;;;;5046153;28;20243;-66
2023/12/12 09:13:31;;;;;;;5.27;3.87;;;7.00;99.90;;;;;;5027142;28;20324;-66
2023/12/12 09:15:59;;;;;;;7.57;3.57;;;7.00;99.90;;;;;;5035154;28;20219;-67
2023/12/12 09:18:27;;;;;;;7.53;3.73;;;6.90;99.90;;;;;;5045735;28;20299;-67
2023/12/12 09:20:53;;;;;;;7.50;3.60;;;7.00;99.90;;;;;;5045320;28;20215;-67
2023/12/12 09:23:22;;;;;;;9.63;3.47;;;7.00;99.90;;;;;;5044992;28;20319;-67
2023/12/12 09:25:49;;;;;;;6.63;3.10;;;6.90;99.90;;;;;;5045623;28;20291;-67
2023/12/12 09:28:16;;;;;;;4.90;3.30;;;6.90;99.90;;;;;;5040901;28;20282;-67
2023/12/12 09:30:43;;;;;;;4.63;3.27;;;6.90;99.90;;;;;;5032517;28;20236;-67
2023/12/12 09:33:11;;;;;;;5.90;3.30;;;6.90;99.90;;;;;;5043289;28;20330;-67
2023/12/12 09:35:39;;;;;;;4.13;2.50;;;6.90;99.90;;;;;;5032971;28;20283;-70
2023/12/12 09:38:06;;;;;;;3.30;3.00;;;6.90;99.90;;;;;;5040023;28;20247;-68
2023/12/12 09:40:34;;;;;;;5.70;2.80;;;6.90;99.90;;;;;;5032799;28;20219;-67
2023/12/12 09:43:04;;;;;;;7.87;2.97;;;6.90;99.90;;;;;;5045408;28;20200;-68
2023/12/12 09:45:32;;;;;;;4.17;3.17;;;6.90;99.90;;;;;;5046592;28;20211;-67
2023/12/12 09:48:00;;;;;;;4.63;3.00;;;6.90;99.90;;;;;;5036936;28;20205;-66
2023/12/12 09:50:29;;;;;;;3.20;2.57;;;6.80;99.90;;;;;;5026810;28;20334;-67
2023/12/12 09:53:00;;;;;;;6.73;2.87;;;6.90;99.90;;;;;;5027135;28;20216;-67
2023/12/12 09:55:28;;;;;;;4.13;2.80;;;6.80;99.90;;;;;;5026879;28;20734;-67
2023/12/12 09:57:55;;;;;;;3.97;2.60;;;6.80;99.90;;;;;;5043008;28;20318;-67
2023/12/12 10:00:22;;;;;;;3.03;2.50;;;6.80;99.90;;;;;;5046675;28;20246;-66
2023/12/12 10:02:51;;;;;;;4.30;2.57;;;6.80;99.90;;;;;;5046523;28;20210;-67
2023/12/12 10:05:19;;;;;;;3.40;2.90;;;6.80;99.90;;;;;;5046647;28;20208;-67
2023/12/12 10:07:50;;;;;;;5.30;2.83;;;6.80;99.90;;;;;;5046470;28;20301;-67
2023/12/12 10:10:17;;;;;;;3.47;2.80;;;6.80;99.90;;;;;;5044203;28;20231;-67
2023/12/12 10:12:47;;;;;;;3.20;2.90;;;6.90;99.90;;;;;;5043690;28;20253;-67
2023/12/12 10:15:25;;;;;;;5.37;2.90;;;6.90;99.90;;;;;;5044792;28;20305;-67
2023/12/12 10:17:56;;;;;;;3.30;2.80;;;6.90;99.90;;;;;;5032966;28;20201;-67
2023/12/12 10:20:26;;;;;;;4.70;2.93;;;6.90;99.90;;;;;;5039595;28;20559;-66
2023/12/12 10:22:57;;;;;;;4.57;3.53;;;6.90;99.90;;;;;;5044666;28;20204;-67
2023/12/12 10:25:24;;;;;;;3.57;3.10;;;7.00;99.90;;;;;;5044978;28;20287;-67
2023/12/12 10:27:53;;;;;;;6.63;3.30;;;7.00;99.90;;;;;;5045039;28;20204;-67
2023/12/12 10:30:22;;;;;;;7.33;3.40;;;7.00;99.90;;;;;;5045185;28;20232;-67
2023/12/12 10:32:51;;;;;;;6.17;3.30;;;7.00;99.90;;;;;;5044156;28;20308;-67
2023/12/12 10:35:18;;;;;;;6.23;3.80;;;7.10;99.90;;;;;;5058277;28;20211;-67
2023/12/12 10:37:44;;;;;;;7.10;3.27;;;7.10;99.90;;;;;;5024734;28;20213;-67
2023/12/12 10:40:16;;;;;;;7.57;3.53;;;7.20;99.90;;;;;;5030614;28;20239;-67
2023/12/12 10:42:43;;;;;;;5.00;3.60;;;7.30;99.90;;;;;;5030313;28;20201;-66
2023/12/12 10:45:13;;;;;;;4.33;3.37;;;7.20;99.90;;;;;;5034875;28;21005;-66
2023/12/12 10:47:42;;;;;;;6.13;3.57;;;7.30;99.90;;;;;;5041740;28;20232;-66
2023/12/12 10:50:13;;;;;;;4.83;3.10;;;7.50;99.90;;;;;;5036712;28;20216;-66
2023/12/12 10:52:41;;;;;;;6.53;3.20;;;7.60;99.90;;;;;;5031958;28;20200;-67
2023/12/12 10:55:10;;;;;;;4.53;3.30;;;7.60;99.90;;;;;;5047012;28;20761;-67
2023/12/12 10:57:42;;;;;;;6.33;3.40;;;7.70;99.90;;;;;;5038950;28;20287;-67
2023/12/12 11:00:12;;;;;;;7.10;3.30;;;7.70;99.90;;;;;;5039428;28;20195;-67
2023/12/12 11:02:40;;;;;;;6.57;3.27;;;7.60;99.90;;;;;;5048178;28;20204;-67
2023/12/12 11:05:10;;;;;;;5.90;3.00;;;7.60;99.90;;;;;;5047058;28;20208;-67
2023/12/12 11:07:37;;;;;;;8.20;3.23;;;7.80;99.90;;;;;;5047420;28;20235;-67
2023/12/12 11:10:10;;;;;;;6.87;3.20;;;7.90;99.90;;;;;;5047603;28;20236;-67
2023/12/12 11:12:42;;;;;;;5.40;3.03;;;8.00;99.90;;;;;;5033619;28;20201;-66
2023/12/12 11:15:11;;;;;;;4.33;3.00;;;8.00;99.90;;;;;;5030375;28;20633;-67
2023/12/12 11:17:39;;;;;;;3.47;2.73;;;8.10;99.90;;;;;;5047585;28;20254;-67
2023/12/12 11:20:13;;;;;;;6.93;2.83;;;8.00;99.90;;;;;;5046001;28;20243;-67
2023/12/12 11:22:42;;;;;;;5.17;2.87;;;8.00;99.90;;;;;;5047118;28;20318;-67
2023/12/12 11:25:16;;;;;;;3.73;2.80;;;8.00;99.90;;;;;;5045523;28;20211;-67
2023/12/12 11:27:48;;;;;;;4.50;2.57;;;8.00;99.90;;;;;;5047616;28;20220;-68
2023/12/12 11:30:16;;;;;;;7.50;2.80;;;8.00;99.90;;;;;;5050838;28;20314;-68
2023/12/12 11:32:44;;;;;;;4.30;2.97;;;7.90;99.90;;;;;;5067452;28;20741;-68
2023/12/12 11:35:28;;;;;;;6.93;2.97;;;7.90;99.90;;;;;;5067390;28;20203;-68
2023/12/12 11:37:56;;;;;;;4.57;3.00;;;7.90;99.90;;;;;;5065817;28;20211;-67
2023/12/12 11:40:25;;;;;;;3.73;3.00;;;8.00;99.90;;;;;;5054717;28;20297;-68
2023/12/12 11:42:56;;;;;;;7.83;2.80;;;8.10;99.90;;;;;;5046553;28;20219;-68
2023/12/12 11:45:34;;;;;;;3.40;2.67;;;8.10;99.90;;;;;;5047223;28;20197;-67
2023/12/12 11:48:02;;;;;;;5.73;2.70;;;8.10;99.90;;;;;;5047013;28;20212;-67
2023/12/12 11:50:35;;;;;;;6.20;3.00;;;8.20;99.90;;;;;;5046827;28;20220;-66
2023/12/12 11:53:03;;;;;;;6.63;2.80;;;8.30;99.90;;;;;;5047021;28;20293;-67
2023/12/12 11:55:32;;;;;;;4.83;3.03;;;8.30;99.90;;;;;;5047283;28;20305;-67
2023/12/12 11:58:05;;;;;;;5.30;2.80;;;8.50;99.90;;;;;;5046775;28;20224;-67
2023/12/12 12:00:34;;;;;;;4.80;2.60;;;8.50;99.90;;;;;;5046387;28;20213;-67
2023/12/12 12:03:01;;;;;;;6.47;2.70;;;8.60;99.90;;;;;;5046833;28;20216;-67
2023/12/12 12:05:28;;;;;;;4.53;2.63;;;8.60;99.90;;;;;;5031334;28;20747;-67
2023/12/12 12:07:56;;;;;;;5.83;2.50;;;8.60;99.90;;;;;;5026840;28;20310;-67
2023/12/12 12:10:23;;;;;;;2.53;2.30;;;8.60;99.90;;;;;;5027444;28;20392;-67
2023/12/12 12:12:57;;;;;;;5.53;2.70;;;8.60;99.90;;;;;;5042850;28;20740;-67
2023/12/12 12:15:26;;;;;;;5.63;2.70;;;8.70;99.90;;;;;;5047710;28;20216;-66
2023/12/12 12:17:54;;;;;;;9.77;2.50;;;8.60;99.90;;;;;;5046975;28;20215;-67
2023/12/12 12:20:21;;;;;;;4.50;2.30;;;8.60;99.90;;;;;;5045062;28;20212;-67
2023/12/12 12:22:48;;;;;;;5.70;2.50;;;8.70;99.90;;;;;;5046762;28;20291;-67
2023/12/12 12:25:22;;;;;;;3.10;2.73;;;8.80;99.90;;;;;;5046357;28;20315;-67
2023/12/12 12:27:51;;;;;;;7.90;3.67;;;8.90;99.90;;;;;;5032663;28;20207;-67
2023/12/12 12:30:19;;;;;;;2.73;2.17;;;8.90;99.90;;;;;;5026909;28;20282;-67
2023/12/12 12:33:01;;;;;;;4.37;2.23;;;8.90;99.90;;;;;;5027304;28;20219;-67
2023/12/12 12:35:28;;;;;;;3.77;2.10;;;9.10;99.90;;;;;;5027238;28;20662;-67
2023/12/12 12:37:56;;;;;;;3.73;2.00;;;9.20;99.90;;;;;;5029969;28;20664;-67
2023/12/12 12:40:37;;;;;;;5.53;2.33;;;9.30;99.90;;;;;;5046446;28;20210;-67
2023/12/12 12:43:14;;;;;;;3.00;2.20;;;9.30;99.90;;;;;;5045925;28;20282;-67
2023/12/12 12:45:41;;;;;;;4.23;2.03;;;9.30;99.90;;;;;;5042280;28;20283;-67
2023/12/12 12:48:12;;;;;;;6.60;2.13;;;9.40;99.90;;;;;;5046258;28;20208;-68
2023/12/12 12:50:41;;;;;;;4.13;2.13;;;9.50;99.90;;;;;;5046568;28;20224;-67
2023/12/12 12:53:08;;;;;;;3.83;2.20;;;9.70;99.90;;;;;;5030700;28;20201;-67
2023/12/12 12:55:35;;;;;;;3.97;1.90;;;9.70;99.90;;;;;;5045621;28;20290;-67
2023/12/12 12:58:02;;;;;;;4.20;2.30;;;9.70;99.90;;;;;;5046883;28;20231;-67
2023/12/12 13:00:29;;;;;;;3.80;1.70;;;9.80;99.90;;;;;;5046881;28;20254;-68